sensor_id;sensor_type;location;lat;lon;timestamp;temperature;humidity
17296;DHT22;8766;51.480;6.872;2023-04-15T00:01:46;11.50;56.40
17296;DHT22;8766;51.480;6.872;2023-04-15T00:04:16;11.40;56.40
17296;DHT22;8766;51.480;6.872;2023-04-15T00:06:49;11.40;56.50
17296;DHT22;8766;51.480;6.872;2023-04-15T00:09:16;11.30;56.50
17296;DHT22;8766;51.480;6.872;2023-04-15T00:11:43;11.30;56.60
17296;DHT22;8766;51.480;6.872;2023-04-15T00:14:10;11.30;56.60
17296;DHT22;8766;51.480;6.872;2023-04-15T00:16:36;11.30;56.70
17296;DHT22;8766;51.480;6.872;2023-04-15T00:19:03;11.20;56.60
17296;DHT22;8766;51.480;6.872;2023-04-15T00:21:31;11.20;56.70
17296;DHT22;8766;51.480;6.872;2023-04-15T00:23:58;11.20;56.70
17296;DHT22;8766;51.480;6.872;2023-04-15T00:26:26;11.20;56.80
17296;DHT22;8766;51.480;6.872;2023-04-15T00:28:53;11.20;56.80
17296;DHT22;8766;51.480;6.872;2023-04-15T00:31:19;11.10;56.80
17296;DHT22;8766;51.480;6.872;2023-04-15T00:33:46;11.10;56.80
17296;DHT22;8766;51.480;6.872;2023-04-15T00:36:13;11.10;56.80
17296;DHT22;8766;51.480;6.872;2023-04-15T00:38:41;11.00;56.90
17296;DHT22;8766;51.480;6.872;2023-04-15T00:41:08;11.00;56.90
17296;DHT22;8766;51.480;6.872;2023-04-15T00:43:36;10.90;57.00
17296;DHT22;8766;51.480;6.872;2023-04-15T00:46:03;11.00;57.00
17296;DHT22;8766;51.480;6.872;2023-04-15T00:48:31;10.90;57.00
17296;DHT22;8766;51.480;6.872;2023-04-15T00:50:58;10.90;57.10
17296;DHT22;8766;51.480;6.872;2023-04-15T00:53:25;10.90;57.10
17296;DHT22;8766;51.480;6.872;2023-04-15T00:55:53;10.80;57.10
17296;DHT22;8766;51.480;6.872;2023-04-15T00:58:20;10.80;57.10
17296;DHT22;8766;51.480;6.872;2023-04-15T01:00:47;10.80;57.10
17296;DHT22;8766;51.480;6.872;2023-04-15T01:03:18;10.90;57.20
17296;DHT22;8766;51.480;6.872;2023-04-15T01:05:45;10.80;57.20
17296;DHT22;8766;51.480;6.872;2023-04-15T01:08:12;10.80;57.30
17296;DHT22;8766;51.480;6.872;2023-04-15T01:10:39;10.80;57.30
17296;DHT22;8766;51.480;6.872;2023-04-15T01:13:07;10.70;57.30
17296;DHT22;8766;51.480;6.872;2023-04-15T01:15:35;10.70;57.30
17296;DHT22;8766;51.480;6.872;2023-04-15T01:18:02;10.70;57.30
17296;DHT22;8766;51.480;6.872;2023-04-15T01:20:28;10.70;57.30
17296;DHT22;8766;51.480;6.872;2023-04-15T01:22:55;10.70;57.30
17296;DHT22;8766;51.480;6.872;2023-04-15T01:25:30;10.70;57.30
17296;DHT22;8766;51.480;6.872;2023-04-15T01:27:58;10.70;57.40
17296;DHT22;8766;51.480;6.872;2023-04-15T01:30:25;10.60;57.40
17296;DHT22;8766;51.480;6.872;2023-04-15T01:32:52;10.60;58.00
17296;DHT22;8766;51.480;6.872;2023-04-15T01:35:19;10.60;57.50
17296;DHT22;8766;51.480;6.872;2023-04-15T01:37:47;10.60;57.50
17296;DHT22;8766;51.480;6.872;2023-04-15T01:40:13;10.50;57.50
17296;DHT22;8766;51.480;6.872;2023-04-15T01:42:42;10.50;57.60
17296;DHT22;8766;51.480;6.872;2023-04-15T01:45:09;10.50;57.60
17296;DHT22;8766;51.480;6.872;2023-04-15T01:47:36;10.50;57.60
17296;DHT22;8766;51.480;6.872;2023-04-15T01:50:04;10.40;57.60
17296;DHT22;8766;51.480;6.872;2023-04-15T01:52:31;10.50;57.70
17296;DHT22;8766;51.480;6.872;2023-04-15T01:54:58;10.30;57.60
17296;DHT22;8766;51.480;6.872;2023-04-15T01:57:25;10.40;57.70
17296;DHT22;8766;51.480;6.872;2023-04-15T01:59:53;10.40;57.80
17296;DHT22;8766;51.480;6.872;2023-04-15T02:02:20;10.40;57.80
17296;DHT22;8766;51.480;6.872;2023-04-15T02:04:47;10.30;57.80
17296;DHT22;8766;51.480;6.872;2023-04-15T02:07:14;10.30;57.80
17296;DHT22;8766;51.480;6.872;2023-04-15T02:09:41;10.30;57.90
17296;DHT22;8766;51.480;6.872;2023-04-15T02:12:10;10.30;57.90
17296;DHT22;8766;51.480;6.872;2023-04-15T02:14:37;10.30;57.90
17296;DHT22;8766;51.480;6.872;2023-04-15T02:17:05;10.30;58.00
17296;DHT22;8766;51.480;6.872;2023-04-15T02:19:33;10.40;58.10
17296;DHT22;8766;51.480;6.872;2023-04-15T02:22:00;10.20;58.00
17296;DHT22;8766;51.480;6.872;2023-04-15T02:24:28;10.20;58.50
17296;DHT22;8766;51.480;6.872;2023-04-15T02:26:55;10.20;58.00
17296;DHT22;8766;51.480;6.872;2023-04-15T02:29:21;10.20;58.00
17296;DHT22;8766;51.480;6.872;2023-04-15T02:31:48;10.20;58.10
17296;DHT22;8766;51.480;6.872;2023-04-15T02:34:16;10.10;58.10
17296;DHT22;8766;51.480;6.872;2023-04-15T02:36:43;10.10;58.20
17296;DHT22;8766;51.480;6.872;2023-04-15T02:39:11;9.90;58.10
17296;DHT22;8766;51.480;6.872;2023-04-15T02:41:41;10.10;58.20
17296;DHT22;8766;51.480;6.872;2023-04-15T02:44:08;10.00;58.30
17296;DHT22;8766;51.480;6.872;2023-04-15T02:46:37;10.00;58.30
17296;DHT22;8766;51.480;6.872;2023-04-15T02:49:05;10.00;58.30
17296;DHT22;8766;51.480;6.872;2023-04-15T02:51:34;9.90;58.30
17296;DHT22;8766;51.480;6.872;2023-04-15T02:54:01;9.90;58.40
17296;DHT22;8766;51.480;6.872;2023-04-15T02:56:27;9.90;58.40
17296;DHT22;8766;51.480;6.872;2023-04-15T02:58:56;9.90;58.50
17296;DHT22;8766;51.480;6.872;2023-04-15T03:01:23;9.80;58.50
17296;DHT22;8766;51.480;6.872;2023-04-15T03:03:55;9.80;58.50
17296;DHT22;8766;51.480;6.872;2023-04-15T03:06:22;9.80;58.60
17296;DHT22;8766;51.480;6.872;2023-04-15T03:08:50;9.80;58.60
17296;DHT22;8766;51.480;6.872;2023-04-15T03:11:18;9.80;58.60
17296;DHT22;8766;51.480;6.872;2023-04-15T03:13:44;9.70;58.60
17296;DHT22;8766;51.480;6.872;2023-04-15T03:16:12;9.80;58.60
17296;DHT22;8766;51.480;6.872;2023-04-15T03:18:38;9.70;58.60
17296;DHT22;8766;51.480;6.872;2023-04-15T03:21:05;9.70;58.60
17296;DHT22;8766;51.480;6.872;2023-04-15T03:23:38;9.70;58.70
17296;DHT22;8766;51.480;6.872;2023-04-15T03:26:06;9.70;58.70
17296;DHT22;8766;51.480;6.872;2023-04-15T03:28:33;9.70;58.70
17296;DHT22;8766;51.480;6.872;2023-04-15T03:31:00;9.60;58.70
17296;DHT22;8766;51.480;6.872;2023-04-15T03:33:26;9.80;58.80
17296;DHT22;8766;51.480;6.872;2023-04-15T03:35:53;9.60;58.70
17296;DHT22;8766;51.480;6.872;2023-04-15T03:38:23;9.60;58.80
17296;DHT22;8766;51.480;6.872;2023-04-15T03:40:49;9.60;58.80
17296;DHT22;8766;51.480;6.872;2023-04-15T03:43:18;9.60;58.90
17296;DHT22;8766;51.480;6.872;2023-04-15T03:45:44;9.50;58.90
17296;DHT22;8766;51.480;6.872;2023-04-15T03:48:14;9.50;58.90
17296;DHT22;8766;51.480;6.872;2023-04-15T03:50:40;9.70;59.00
17296;DHT22;8766;51.480;6.872;2023-04-15T03:53:07;9.50;59.00
17296;DHT22;8766;51.480;6.872;2023-04-15T03:55:35;9.60;59.10
17296;DHT22;8766;51.480;6.872;2023-04-15T03:58:05;9.40;59.00
17296;DHT22;8766;51.480;6.872;2023-04-15T04:00:36;9.50;59.10
17296;DHT22;8766;51.480;6.872;2023-04-15T04:03:03;9.40;59.10
17296;DHT22;8766;51.480;6.872;2023-04-15T04:05:34;9.40;59.10
17296;DHT22;8766;51.480;6.872;2023-04-15T04:08:03;9.40;59.20
17296;DHT22;8766;51.480;6.872;2023-04-15T04:10:30;9.40;59.20
17296;DHT22;8766;51.480;6.872;2023-04-15T04:12:57;9.30;59.20
17296;DHT22;8766;51.480;6.872;2023-04-15T04:15:23;9.30;59.20
17296;DHT22;8766;51.480;6.872;2023-04-15T04:17:52;9.20;59.20
17296;DHT22;8766;51.480;6.872;2023-04-15T04:20:19;9.30;59.30
17296;DHT22;8766;51.480;6.872;2023-04-15T04:22:46;9.30;59.30
17296;DHT22;8766;51.480;6.872;2023-04-15T04:25:13;9.30;59.30
17296;DHT22;8766;51.480;6.872;2023-04-15T04:27:39;9.20;59.30
17296;DHT22;8766;51.480;6.872;2023-04-15T04:30:07;9.20;59.40
17296;DHT22;8766;51.480;6.872;2023-04-15T04:32:34;9.20;59.40
17296;DHT22;8766;51.480;6.872;2023-04-15T04:35:02;9.10;59.40
17296;DHT22;8766;51.480;6.872;2023-04-15T04:37:33;9.20;59.40
17296;DHT22;8766;51.480;6.872;2023-04-15T04:40:00;9.20;59.40
17296;DHT22;8766;51.480;6.872;2023-04-15T04:42:27;9.20;59.40
17296;DHT22;8766;51.480;6.872;2023-04-15T04:44:57;9.20;59.50
17296;DHT22;8766;51.480;6.872;2023-04-15T04:47:28;9.20;59.50
17296;DHT22;8766;51.480;6.872;2023-04-15T04:49:57;9.10;59.50
17296;DHT22;8766;51.480;6.872;2023-04-15T04:52:26;9.20;59.50
17296;DHT22;8766;51.480;6.872;2023-04-15T04:54:52;9.10;59.50
17296;DHT22;8766;51.480;6.872;2023-04-15T04:57:21;9.10;59.50
17296;DHT22;8766;51.480;6.872;2023-04-15T04:59:48;9.10;59.60
17296;DHT22;8766;51.480;6.872;2023-04-15T05:02:15;9.10;59.50
17296;DHT22;8766;51.480;6.872;2023-04-15T05:04:42;9.10;59.50
17296;DHT22;8766;51.480;6.872;2023-04-15T05:07:09;9.10;59.50
17296;DHT22;8766;51.480;6.872;2023-04-15T05:09:37;9.20;59.50
17296;DHT22;8766;51.480;6.872;2023-04-15T05:12:04;9.20;59.40
17296;DHT22;8766;51.480;6.872;2023-04-15T05:14:32;9.20;59.30
17296;DHT22;8766;51.480;6.872;2023-04-15T05:17:00;9.20;59.20
17296;DHT22;8766;51.480;6.872;2023-04-15T05:19:26;9.30;59.20
17296;DHT22;8766;51.480;6.872;2023-04-15T05:21:53;9.30;59.10
17296;DHT22;8766;51.480;6.872;2023-04-15T05:24:20;9.40;59.10
17296;DHT22;8766;51.480;6.872;2023-04-15T05:26:48;9.40;59.00
17296;DHT22;8766;51.480;6.872;2023-04-15T05:29:15;9.50;58.90
17296;DHT22;8766;51.480;6.872;2023-04-15T05:31:42;9.60;58.80
17296;DHT22;8766;51.480;6.872;2023-04-15T05:34:09;9.60;59.20
17296;DHT22;8766;51.480;6.872;2023-04-15T05:36:43;9.90;58.70
17296;DHT22;8766;51.480;6.872;2023-04-15T05:39:10;9.80;58.50
17296;DHT22;8766;51.480;6.872;2023-04-15T05:41:36;9.90;58.40
17296;DHT22;8766;51.480;6.872;2023-04-15T05:44:05;10.00;58.20
17296;DHT22;8766;51.480;6.872;2023-04-15T05:46:32;10.10;58.00
17296;DHT22;8766;51.480;6.872;2023-04-15T05:49:01;10.20;57.90
17296;DHT22;8766;51.480;6.872;2023-04-15T05:51:32;10.30;57.60
17296;DHT22;8766;51.480;6.872;2023-04-15T05:54:01;10.50;58.00
17296;DHT22;8766;51.480;6.872;2023-04-15T05:56:27;10.70;57.10
17296;DHT22;8766;51.480;6.872;2023-04-15T05:58:55;10.90;56.90
17296;DHT22;8766;51.480;6.872;2023-04-15T06:01:26;11.10;56.60
17296;DHT22;8766;51.480;6.872;2023-04-15T06:03:53;11.50;56.20
17296;DHT22;8766;51.480;6.872;2023-04-15T06:06:20;12.50;54.80
17296;DHT22;8766;51.480;6.872;2023-04-15T06:08:47;13.70;52.70
17296;DHT22;8766;51.480;6.872;2023-04-15T06:11:13;14.40;51.10
17296;DHT22;8766;51.480;6.872;2023-04-15T06:13:40;15.20;50.60
17296;DHT22;8766;51.480;6.872;2023-04-15T06:16:07;15.70;49.20
17296;DHT22;8766;51.480;6.872;2023-04-15T06:18:35;16.10;48.70
17296;DHT22;8766;51.480;6.872;2023-04-15T06:21:02;16.30;48.40
17296;DHT22;8766;51.480;6.872;2023-04-15T06:23:29;16.20;48.50
17296;DHT22;8766;51.480;6.872;2023-04-15T06:25:56;16.10;48.90
17296;DHT22;8766;51.480;6.872;2023-04-15T06:28:22;16.00;49.70
17296;DHT22;8766;51.480;6.872;2023-04-15T06:30:49;16.10;49.40
17296;DHT22;8766;51.480;6.872;2023-04-15T06:33:16;15.90;49.50
17296;DHT22;8766;51.480;6.872;2023-04-15T06:35:44;16.10;49.30
17296;DHT22;8766;51.480;6.872;2023-04-15T06:38:11;16.50;48.90
17296;DHT22;8766;51.480;6.872;2023-04-15T06:40:38;16.80;48.40
17296;DHT22;8766;51.480;6.872;2023-04-15T06:43:05;17.10;48.10
17296;DHT22;8766;51.480;6.872;2023-04-15T06:45:32;17.40;47.80
17296;DHT22;8766;51.480;6.872;2023-04-15T06:47:59;17.80;47.20
17296;DHT22;8766;51.480;6.872;2023-04-15T06:50:31;18.30;46.60
17296;DHT22;8766;51.480;6.872;2023-04-15T06:53:00;19.00;45.60
17296;DHT22;8766;51.480;6.872;2023-04-15T06:55:27;19.70;44.50
17296;DHT22;8766;51.480;6.872;2023-04-15T06:57:54;20.70;43.40
17296;DHT22;8766;51.480;6.872;2023-04-15T07:00:21;21.40;42.40
17296;DHT22;8766;51.480;6.872;2023-04-15T07:02:47;22.00;41.80
17296;DHT22;8766;51.480;6.872;2023-04-15T07:05:14;22.50;41.10
17296;DHT22;8766;51.480;6.872;2023-04-15T07:07:41;22.90;40.80
17296;DHT22;8766;51.480;6.872;2023-04-15T07:10:25;23.20;40.60
17296;DHT22;8766;51.480;6.872;2023-04-15T07:13:00;23.40;40.60
17296;DHT22;8766;51.480;6.872;2023-04-15T07:15:36;23.50;40.40
17296;DHT22;8766;51.480;6.872;2023-04-15T07:18:03;23.60;40.50
17296;DHT22;8766;51.480;6.872;2023-04-15T07:20:33;23.40;41.00
17296;DHT22;8766;51.480;6.872;2023-04-15T07:23:00;22.90;41.80
17296;DHT22;8766;51.480;6.872;2023-04-15T07:25:28;22.40;42.60
17296;DHT22;8766;51.480;6.872;2023-04-15T07:27:55;22.40;42.80
17296;DHT22;8766;51.480;6.872;2023-04-15T07:30:22;22.30;43.10
17296;DHT22;8766;51.480;6.872;2023-04-15T07:32:48;21.80;43.60
17296;DHT22;8766;51.480;6.872;2023-04-15T07:35:36;21.50;44.30
17296;DHT22;8766;51.480;6.872;2023-04-15T07:38:11;21.10;44.80
17296;DHT22;8766;51.480;6.872;2023-04-15T07:40:39;20.80;45.40
17296;DHT22;8766;51.480;6.872;2023-04-15T07:43:06;20.20;46.30
17296;DHT22;8766;51.480;6.872;2023-04-15T07:45:34;19.80;47.00
17296;DHT22;8766;51.480;6.872;2023-04-15T07:48:01;19.30;47.60
17296;DHT22;8766;51.480;6.872;2023-04-15T07:50:30;19.00;48.70
17296;DHT22;8766;51.480;6.872;2023-04-15T07:52:57;18.60;48.60
17296;DHT22;8766;51.480;6.872;2023-04-15T07:55:23;18.30;49.20
17296;DHT22;8766;51.480;6.872;2023-04-15T07:57:51;18.00;49.60
17296;DHT22;8766;51.480;6.872;2023-04-15T08:00:18;17.80;49.80
17296;DHT22;8766;51.480;6.872;2023-04-15T08:02:50;17.60;50.00
17296;DHT22;8766;51.480;6.872;2023-04-15T08:05:18;17.50;50.10
17296;DHT22;8766;51.480;6.872;2023-04-15T08:07:45;17.50;50.10
17296;DHT22;8766;51.480;6.872;2023-04-15T08:10:11;17.50;50.00
17296;DHT22;8766;51.480;6.872;2023-04-15T08:12:38;17.60;49.80
17296;DHT22;8766;51.480;6.872;2023-04-15T08:15:08;17.80;49.50
17296;DHT22;8766;51.480;6.872;2023-04-15T08:17:35;18.10;49.00
17296;DHT22;8766;51.480;6.872;2023-04-15T08:20:08;18.20;48.60
17296;DHT22;8766;51.480;6.872;2023-04-15T08:22:37;18.20;48.60
17296;DHT22;8766;51.480;6.872;2023-04-15T08:25:04;18.00;48.60
17296;DHT22;8766;51.480;6.872;2023-04-15T08:27:31;17.90;48.80
17296;DHT22;8766;51.480;6.872;2023-04-15T08:29:58;17.90;48.90
17296;DHT22;8766;51.480;6.872;2023-04-15T08:32:26;17.90;49.00
17296;DHT22;8766;51.480;6.872;2023-04-15T08:34:53;17.70;49.00
17296;DHT22;8766;51.480;6.872;2023-04-15T08:37:20;17.70;49.10
17296;DHT22;8766;51.480;6.872;2023-04-15T08:39:47;17.60;49.20
17296;DHT22;8766;51.480;6.872;2023-04-15T08:42:16;17.60;49.30
17296;DHT22;8766;51.480;6.872;2023-04-15T08:44:45;17.50;49.30
17296;DHT22;8766;51.480;6.872;2023-04-15T08:47:15;17.70;49.20
17296;DHT22;8766;51.480;6.872;2023-04-15T08:49:45;18.10;48.60
17296;DHT22;8766;51.480;6.872;2023-04-15T08:52:18;18.60;47.90
17296;DHT22;8766;51.480;6.872;2023-04-15T08:54:46;19.20;46.90
17296;DHT22;8766;51.480;6.872;2023-04-15T08:57:14;19.70;46.10
17296;DHT22;8766;51.480;6.872;2023-04-15T08:59:42;20.10;45.50
17296;DHT22;8766;51.480;6.872;2023-04-15T09:02:10;20.40;44.80
17296;DHT22;8766;51.480;6.872;2023-04-15T09:04:36;21.00;44.10
17296;DHT22;8766;51.480;6.872;2023-04-15T09:07:07;21.50;43.30
17296;DHT22;8766;51.480;6.872;2023-04-15T09:09:35;21.90;42.60
17296;DHT22;8766;51.480;6.872;2023-04-15T09:12:04;22.10;42.10
17296;DHT22;8766;51.480;6.872;2023-04-15T09:14:31;22.00;42.30
17296;DHT22;8766;51.480;6.872;2023-04-15T09:17:00;21.50;43.10
17296;DHT22;8766;51.480;6.872;2023-04-15T09:19:28;20.90;44.00
17296;DHT22;8766;51.480;6.872;2023-04-15T09:21:56;20.60;44.60
17296;DHT22;8766;51.480;6.872;2023-04-15T09:24:25;20.40;44.90
17296;DHT22;8766;51.480;6.872;2023-04-15T09:26:57;20.20;45.20
17296;DHT22;8766;51.480;6.872;2023-04-15T09:29:24;19.90;45.50
17296;DHT22;8766;51.480;6.872;2023-04-15T09:31:51;19.60;46.00
17296;DHT22;8766;51.480;6.872;2023-04-15T09:34:18;19.30;46.50
17296;DHT22;8766;51.480;6.872;2023-04-15T09:36:52;19.00;47.00
17296;DHT22;8766;51.480;6.872;2023-04-15T09:39:19;18.70;47.60
17296;DHT22;8766;51.480;6.872;2023-04-15T09:42:03;18.50;48.10
17296;DHT22;8766;51.480;6.872;2023-04-15T09:44:31;18.30;48.30
17296;DHT22;8766;51.480;6.872;2023-04-15T09:47:03;18.20;48.40
17296;DHT22;8766;51.480;6.872;2023-04-15T09:49:30;18.10;48.60
17296;DHT22;8766;51.480;6.872;2023-04-15T09:51:59;18.00;48.80
17296;DHT22;8766;51.480;6.872;2023-04-15T09:54:33;17.80;49.00
17296;DHT22;8766;51.480;6.872;2023-04-15T09:57:06;17.60;49.20
17296;DHT22;8766;51.480;6.872;2023-04-15T09:59:34;17.40;49.50
17296;DHT22;8766;51.480;6.872;2023-04-15T10:02:03;17.30;49.70
17296;DHT22;8766;51.480;6.872;2023-04-15T10:04:34;17.40;49.80
17296;DHT22;8766;51.480;6.872;2023-04-15T10:07:07;17.30;49.70
17296;DHT22;8766;51.480;6.872;2023-04-15T10:09:35;17.30;49.70
17296;DHT22;8766;51.480;6.872;2023-04-15T10:12:02;17.30;49.70
17296;DHT22;8766;51.480;6.872;2023-04-15T10:14:33;17.20;49.90
17296;DHT22;8766;51.480;6.872;2023-04-15T10:17:04;17.00;50.10
17296;DHT22;8766;51.480;6.872;2023-04-15T10:19:33;16.90;50.30
17296;DHT22;8766;51.480;6.872;2023-04-15T10:22:04;16.80;50.40
17296;DHT22;8766;51.480;6.872;2023-04-15T10:24:32;16.70;50.60
17296;DHT22;8766;51.480;6.872;2023-04-15T10:26:59;16.60;50.70
17296;DHT22;8766;51.480;6.872;2023-04-15T10:29:26;16.50;50.80
17296;DHT22;8766;51.480;6.872;2023-04-15T10:31:55;16.40;50.90
17296;DHT22;8766;51.480;6.872;2023-04-15T10:34:23;16.40;51.00
17296;DHT22;8766;51.480;6.872;2023-04-15T10:36:50;16.30;51.00
17296;DHT22;8766;51.480;6.872;2023-04-15T10:39:40;16.20;51.20
17296;DHT22;8766;51.480;6.872;2023-04-15T10:42:09;16.10;51.50
17296;DHT22;8766;51.480;6.872;2023-04-15T10:44:37;16.10;51.50
17296;DHT22;8766;51.480;6.872;2023-04-15T10:47:09;16.00;51.40
17296;DHT22;8766;51.480;6.872;2023-04-15T10:49:45;15.90;51.60
17296;DHT22;8766;51.480;6.872;2023-04-15T10:52:14;15.80;52.30
17296;DHT22;8766;51.480;6.872;2023-04-15T10:54:42;15.70;51.90
17296;DHT22;8766;51.480;6.872;2023-04-15T10:57:20;15.60;52.10
17296;DHT22;8766;51.480;6.872;2023-04-15T11:00:11;15.50;52.40
17296;DHT22;8766;51.480;6.872;2023-04-15T11:02:41;15.40;52.40
17296;DHT22;8766;51.480;6.872;2023-04-15T11:05:09;15.50;52.40
17296;DHT22;8766;51.480;6.872;2023-04-15T11:07:40;15.50;52.20
17296;DHT22;8766;51.480;6.872;2023-04-15T11:13:21;15.50;52.10
17296;DHT22;8766;51.480;6.872;2023-04-15T11:15:49;15.50;52.10
17296;DHT22;8766;51.480;6.872;2023-04-15T11:18:19;15.50;52.00
17296;DHT22;8766;51.480;6.872;2023-04-15T11:20:48;15.60;52.00
17296;DHT22;8766;51.480;6.872;2023-04-15T11:23:17;15.60;51.80
17296;DHT22;8766;51.480;6.872;2023-04-15T11:25:45;15.70;51.70
17296;DHT22;8766;51.480;6.872;2023-04-15T11:28:13;15.80;51.50
17296;DHT22;8766;51.480;6.872;2023-04-15T11:31:18;16.00;51.30
17296;DHT22;8766;51.480;6.872;2023-04-15T11:33:55;16.00;51.20
17296;DHT22;8766;51.480;6.872;2023-04-15T11:36:24;16.00;51.10
17296;DHT22;8766;51.480;6.872;2023-04-15T11:38:52;15.90;51.10
17296;DHT22;8766;51.480;6.872;2023-04-15T11:41:20;15.80;51.30
17296;DHT22;8766;51.480;6.872;2023-04-15T11:43:47;15.70;51.60
17296;DHT22;8766;51.480;6.872;2023-04-15T11:46:14;15.60;51.80
17296;DHT22;8766;51.480;6.872;2023-04-15T11:48:43;15.50;51.90
17296;DHT22;8766;51.480;6.872;2023-04-15T11:51:13;15.50;52.00
17296;DHT22;8766;51.480;6.872;2023-04-15T11:53:41;15.40;52.20
17296;DHT22;8766;51.480;6.872;2023-04-15T11:56:09;15.30;52.30
17296;DHT22;8766;51.480;6.872;2023-04-15T11:58:37;15.30;52.40
17296;DHT22;8766;51.480;6.872;2023-04-15T12:01:05;15.20;52.60
17296;DHT22;8766;51.480;6.872;2023-04-15T12:03:37;15.10;52.70
17296;DHT22;8766;51.480;6.872;2023-04-15T12:06:14;15.00;52.90
17296;DHT22;8766;51.480;6.872;2023-04-15T12:08:52;14.90;53.00
17296;DHT22;8766;51.480;6.872;2023-04-15T12:11:20;14.80;53.20
17296;DHT22;8766;51.480;6.872;2023-04-15T12:13:48;14.70;53.30
17296;DHT22;8766;51.480;6.872;2023-04-15T12:16:16;14.60;53.40
17296;DHT22;8766;51.480;6.872;2023-04-15T12:18:44;14.60;53.40
17296;DHT22;8766;51.480;6.872;2023-04-15T12:21:13;14.60;53.40
17296;DHT22;8766;51.480;6.872;2023-04-15T12:23:47;14.70;53.40
17296;DHT22;8766;51.480;6.872;2023-04-15T12:26:15;14.70;53.20
17296;DHT22;8766;51.480;6.872;2023-04-15T12:28:42;14.80;53.10
17296;DHT22;8766;51.480;6.872;2023-04-15T12:31:10;14.80;53.00
17296;DHT22;8766;51.480;6.872;2023-04-15T12:33:37;14.80;53.00
17296;DHT22;8766;51.480;6.872;2023-04-15T12:36:05;14.90;52.90
17296;DHT22;8766;51.480;6.872;2023-04-15T12:38:39;14.80;52.80
17296;DHT22;8766;51.480;6.872;2023-04-15T12:41:06;14.80;52.90
17296;DHT22;8766;51.480;6.872;2023-04-15T12:43:34;14.90;52.80
17296;DHT22;8766;51.480;6.872;2023-04-15T12:46:00;14.90;52.80
17296;DHT22;8766;51.480;6.872;2023-04-15T12:48:27;14.90;52.90
17296;DHT22;8766;51.480;6.872;2023-04-15T12:50:54;14.80;52.90
17296;DHT22;8766;51.480;6.872;2023-04-15T12:53:21;14.80;52.90
17296;DHT22;8766;51.480;6.872;2023-04-15T12:55:49;14.80;53.00
17296;DHT22;8766;51.480;6.872;2023-04-15T12:58:16;14.70;53.00
17296;DHT22;8766;51.480;6.872;2023-04-15T13:00:43;14.80;53.10
17296;DHT22;8766;51.480;6.872;2023-04-15T13:03:11;14.70;53.00
17296;DHT22;8766;51.480;6.872;2023-04-15T13:05:38;14.70;53.10
17296;DHT22;8766;51.480;6.872;2023-04-15T13:08:05;14.60;53.20
17296;DHT22;8766;51.480;6.872;2023-04-15T13:10:34;14.60;53.30
17296;DHT22;8766;51.480;6.872;2023-04-15T13:13:04;14.50;53.40
17296;DHT22;8766;51.480;6.872;2023-04-15T13:15:31;14.40;53.50
17296;DHT22;8766;51.480;6.872;2023-04-15T13:17:58;14.40;53.60
17296;DHT22;8766;51.480;6.872;2023-04-15T13:20:25;14.30;53.70
17296;DHT22;8766;51.480;6.872;2023-04-15T13:22:52;14.30;53.80
17296;DHT22;8766;51.480;6.872;2023-04-15T13:25:19;14.40;53.80
17296;DHT22;8766;51.480;6.872;2023-04-15T13:27:46;14.40;53.70
17296;DHT22;8766;51.480;6.872;2023-04-15T13:30:15;14.40;53.60
17296;DHT22;8766;51.480;6.872;2023-04-15T13:32:41;14.40;53.60
17296;DHT22;8766;51.480;6.872;2023-04-15T13:35:08;14.40;53.50
17296;DHT22;8766;51.480;6.872;2023-04-15T13:37:36;14.40;53.50
17296;DHT22;8766;51.480;6.872;2023-04-15T13:40:04;14.40;53.60
17296;DHT22;8766;51.480;6.872;2023-04-15T13:42:32;14.30;53.60
17296;DHT22;8766;51.480;6.872;2023-04-15T13:44:59;14.30;53.70
17296;DHT22;8766;51.480;6.872;2023-04-15T13:47:27;14.30;53.80
17296;DHT22;8766;51.480;6.872;2023-04-15T13:49:55;14.20;53.90
17296;DHT22;8766;51.480;6.872;2023-04-15T13:52:22;14.30;53.80
17296;DHT22;8766;51.480;6.872;2023-04-15T13:54:48;14.30;53.60
17296;DHT22;8766;51.480;6.872;2023-04-15T13:57:16;14.50;53.50
17296;DHT22;8766;51.480;6.872;2023-04-15T13:59:43;14.50;53.30
17296;DHT22;8766;51.480;6.872;2023-04-15T14:02:10;14.60;53.20
17296;DHT22;8766;51.480;6.872;2023-04-15T14:04:38;14.60;53.10
17296;DHT22;8766;51.480;6.872;2023-04-15T14:07:05;14.60;53.20
17296;DHT22;8766;51.480;6.872;2023-04-15T14:09:32;14.50;53.30
17296;DHT22;8766;51.480;6.872;2023-04-15T14:12:00;14.40;53.50
17296;DHT22;8766;51.480;6.872;2023-04-15T14:14:29;14.30;53.60
17296;DHT22;8766;51.480;6.872;2023-04-15T14:16:56;14.30;53.70
17296;DHT22;8766;51.480;6.872;2023-04-15T14:19:23;14.30;53.80
17296;DHT22;8766;51.480;6.872;2023-04-15T14:21:52;14.30;53.80
17296;DHT22;8766;51.480;6.872;2023-04-15T14:24:19;14.30;53.80
17296;DHT22;8766;51.480;6.872;2023-04-15T14:26:46;14.30;53.80
17296;DHT22;8766;51.480;6.872;2023-04-15T14:29:13;14.20;53.80
17296;DHT22;8766;51.480;6.872;2023-04-15T14:31:39;14.20;53.80
17296;DHT22;8766;51.480;6.872;2023-04-15T14:34:07;14.30;53.90
17296;DHT22;8766;51.480;6.872;2023-04-15T14:36:33;14.30;53.80
17296;DHT22;8766;51.480;6.872;2023-04-15T14:39:02;14.30;53.80
17296;DHT22;8766;51.480;6.872;2023-04-15T14:41:30;14.30;53.80
17296;DHT22;8766;51.480;6.872;2023-04-15T14:43:57;14.30;53.80
17296;DHT22;8766;51.480;6.872;2023-04-15T14:46:24;14.20;53.80
17296;DHT22;8766;51.480;6.872;2023-04-15T14:48:51;14.20;54.00
17296;DHT22;8766;51.480;6.872;2023-04-15T14:51:18;14.20;54.00
17296;DHT22;8766;51.480;6.872;2023-04-15T14:53:45;14.20;54.10
17296;DHT22;8766;51.480;6.872;2023-04-15T14:56:13;14.20;54.10
17296;DHT22;8766;51.480;6.872;2023-04-15T14:58:40;14.20;54.20
17296;DHT22;8766;51.480;6.872;2023-04-15T15:01:07;14.20;54.10
17296;DHT22;8766;51.480;6.872;2023-04-15T15:03:34;14.20;54.20
17296;DHT22;8766;51.480;6.872;2023-04-15T15:06:01;14.10;54.20
17296;DHT22;8766;51.480;6.872;2023-04-15T15:08:28;14.10;54.30
17296;DHT22;8766;51.480;6.872;2023-04-15T15:10:56;14.10;54.20
17296;DHT22;8766;51.480;6.872;2023-04-15T15:13:28;14.10;54.30
17296;DHT22;8766;51.480;6.872;2023-04-15T15:15:56;14.10;54.40
17296;DHT22;8766;51.480;6.872;2023-04-15T15:18:23;14.10;54.40
17296;DHT22;8766;51.480;6.872;2023-04-15T15:20:50;14.00;54.40
17296;DHT22;8766;51.480;6.872;2023-04-15T15:23:17;14.00;54.50
17296;DHT22;8766;51.480;6.872;2023-04-15T15:25:45;13.90;54.50
17296;DHT22;8766;51.480;6.872;2023-04-15T15:28:12;14.00;54.60
17296;DHT22;8766;51.480;6.872;2023-04-15T15:30:40;14.00;54.60
17296;DHT22;8766;51.480;6.872;2023-04-15T15:33:07;13.90;54.60
17296;DHT22;8766;51.480;6.872;2023-04-15T15:35:34;13.90;54.70
17296;DHT22;8766;51.480;6.872;2023-04-15T15:38:01;13.80;54.80
17296;DHT22;8766;51.480;6.872;2023-04-15T15:40:28;13.80;54.90
17296;DHT22;8766;51.480;6.872;2023-04-15T15:42:55;13.80;54.90
17296;DHT22;8766;51.480;6.872;2023-04-15T15:45:22;13.80;55.00
17296;DHT22;8766;51.480;6.872;2023-04-15T15:47:50;13.70;55.10
17296;DHT22;8766;51.480;6.872;2023-04-15T15:50:17;13.70;55.20
17296;DHT22;8766;51.480;6.872;2023-04-15T15:52:45;13.60;55.20
17296;DHT22;8766;51.480;6.872;2023-04-15T15:55:12;13.60;55.30
17296;DHT22;8766;51.480;6.872;2023-04-15T15:57:39;13.50;55.30
17296;DHT22;8766;51.480;6.872;2023-04-15T16:00:08;13.50;55.40